Anmoore, West Virginia
Current Conditions -  °F | °C
As of 12:59 PM on Tuesday 21 Oct 2014 (Local Time) from KCKB Reporting Station
Light Rain Light Rain  
Wind Chill: 51°   Ceiling: 600
Heat Index: 51°   Visibility: 2mi
Dew Point: 50°   Wind: 7mph
Humidity: 96%   Direction: 290°WNW
Pressure: 29.9"   Gusts: NA
Location:  39.26°N, 80.29°W
Report Text: KCKB 211659Z 29006KT 2SM -RA BR BKN006 BKN022 OVC060 11/10 A2990 RMK AO2 T01060100 PNO $
Loading
Personal Weather Stations






























Interactive Weather Map
Tropical Storm Tracking
New forecast layout! Learn more

10-Day Weather Forecast

Advertisements
Track Severe Weather on mobile